Time;durP1;ratioP1;P1;durP2;ratioP2;P2;SDS_P1;SDS_P2;PMS_P1;PMS_P2;Temp;Humidity;BMP_temperature;BMP_pressure;BME280_temperature;BME280_humidity;BME280_pressure;Samples;Min_cycle;Max_cycle;Signal;HPM_P1;HPM_P2
2022/08/18 00:00:33;;;;;;;37.20;33.80;;;17.60;99.90;;;;;;5094065;28;20916;-53
2022/08/18 00:03:05;;;;;;;38.40;34.50;;;17.60;1.00;;;;;;5093024;28;20459;-51
2022/08/18 00:05:35;;;;;;;36.33;32.77;;;17.60;1.00;;;;;;5092978;28;20505;-52
2022/08/18 00:08:03;;;;;;;39.93;36.20;;;17.60;99.90;;;;;;5084367;28;20462;-51
2022/08/18 00:10:34;;;;;;;39.67;35.50;;;17.60;99.90;;;;;;5086517;28;20487;-50
2022/08/18 00:13:01;;;;;;;39.93;35.87;;;17.60;99.90;;;;;;5089122;28;20936;-53
2022/08/18 00:15:29;;;;;;;38.67;35.00;;;17.70;99.90;;;;;;5083844;28;20504;-52
2022/08/18 00:17:56;;;;;;;41.00;37.00;;;17.60;99.90;;;;;;5087143;28;20485;-50
2022/08/18 00:20:25;;;;;;;37.60;34.13;;;17.50;99.90;;;;;;5094012;28;20498;-48
2022/08/18 00:22:55;;;;;;;40.20;36.20;;;17.40;1.00;;;;;;5098168;28;20543;-50
2022/08/18 00:25:24;;;;;;;41.07;37.07;;;17.40;99.90;;;;;;5097506;28;20765;-52
2022/08/18 00:27:57;;;;;;;41.33;37.37;;;17.40;99.90;;;;;;5096778;28;20438;-54
2022/08/18 00:30:25;;;;;;;42.50;38.33;;;17.30;99.90;;;;;;5092077;28;20845;-47
2022/08/18 00:32:55;;;;;;;41.13;37.03;;;17.40;1.00;;;;;;5080907;28;20489;-53
2022/08/18 00:35:26;;;;;;;40.13;36.23;;;17.40;1.00;;;;;;5095829;28;20439;-54
2022/08/18 00:37:54;;;;;;;40.77;36.90;;;17.40;99.90;;;;;;5096369;28;20495;-52
2022/08/18 00:40:28;;;;;;;41.33;37.27;;;17.40;1.00;;;;;;5090850;28;20547;-48
2022/08/18 00:43:01;;;;;;;40.43;36.50;;;17.40;70.50;;;;;;5077589;28;20434;-51
2022/08/18 00:45:32;;;;;;;41.20;37.30;;;17.40;99.90;;;;;;5080706;28;20460;-51
2022/08/18 00:48:03;;;;;;;41.87;37.77;;;17.40;99.90;;;;;;5080949;28;20456;-52
2022/08/18 00:50:36;;;;;;;39.87;36.03;;;17.30;99.90;;;;;;5092475;28;20664;-52
2022/08/18 00:53:23;;;;;;;42.13;38.07;;;17.30;99.90;;;;;;5097616;28;20456;-51
2022/08/18 00:55:51;;;;;;;39.20;35.40;;;17.30;99.90;;;;;;5096236;28;20572;-50
2022/08/18 00:58:27;;;;;;;39.83;36.00;;;17.30;1.00;;;;;;5097404;28;20967;-52
2022/08/18 01:00:55;;;;;;;39.80;36.07;;;17.30;1.00;;;;;;5094947;28;20460;-52
2022/08/18 01:03:23;;;;;;;41.67;37.70;;;17.20;1.00;;;;;;5092271;28;20496;-50
2022/08/18 01:05:56;;;;;;;39.70;35.80;;;17.30;1.00;;;;;;5095527;28;20480;-49
2022/08/18 01:08:25;;;;;;;40.03;36.20;;;17.20;1.00;;;;;;5096649;28;20834;-54
2022/08/18 01:10:54;;;;;;;39.17;35.17;;;17.20;1.00;;;;;;5086710;28;20557;-54
2022/08/18 01:13:27;;;;;;;38.90;35.07;;;17.10;1.00;;;;;;5090952;28;20464;-54
2022/08/18 01:15:58;;;;;;;38.87;35.20;;;16.90;1.00;;;;;;5087105;28;20460;-51
2022/08/18 01:24:06;;;;;;;39.57;35.67;;;16.90;99.90;;;;;;5095940;28;20502;-50
2022/08/18 01:26:39;;;;;;;41.90;37.70;;;16.90;1.00;;;;;;5091232;28;20470;-50
2022/08/18 01:29:10;;;;;;;39.57;35.67;;;16.90;1.00;;;;;;5087267;28;20456;-52
2022/08/18 01:31:41;;;;;;;39.50;35.40;;;16.90;99.90;;;;;;5094842;28;20784;-53
2022/08/18 01:34:11;;;;;;;43.33;39.10;;;16.90;35.40;;;;;;5091939;28;20459;-53
2022/08/18 01:36:51;;;;;;;38.73;34.93;;;17.00;1.00;;;;;;5082294;28;20461;-54
2022/08/18 01:39:20;;;;;;;40.57;36.60;;;16.90;1.00;;;;;;5092973;28;20427;-54
2022/08/18 01:41:47;;;;;;;41.63;37.83;;;16.80;1.00;;;;;;5084890;28;20852;-55
2022/08/18 01:44:15;;;;;;;40.33;36.33;;;16.70;99.90;;;;;;5092120;28;20551;-50
2022/08/18 01:46:42;;;;;;;40.10;36.20;;;16.60;34.50;;;;;;5083097;28;20467;-51
2022/08/18 01:49:12;;;;;;;42.43;38.20;;;16.70;1.00;;;;;;5090544;28;20506;-53
2022/08/18 01:51:41;;;;;;;40.37;36.27;;;16.60;1.00;;;;;;5091327;28;20761;-54
2022/08/18 01:54:12;;;;;;;40.43;36.23;;;16.70;99.90;;;;;;5091568;28;20533;-52
2022/08/18 01:56:42;;;;;;;39.77;35.77;;;16.60;99.90;;;;;;5096608;28;20551;-54
2022/08/18 01:59:13;;;;;;;38.67;34.90;;;16.70;1.00;;;;;;5095026;28;20909;-56
2022/08/18 02:01:41;;;;;;;40.97;36.93;;;16.70;1.00;;;;;;5096378;28;20525;-52
2022/08/18 02:04:11;;;;;;;41.03;36.63;;;16.70;99.90;;;;;;5096051;28;20529;-53
2022/08/18 02:06:39;;;;;;;38.90;35.03;;;16.70;24.70;;;;;;5098156;28;20483;-54
2022/08/18 02:09:08;;;;;;;40.97;36.80;;;16.70;1.00;;;;;;5095032;28;20431;-53
2022/08/18 02:11:40;;;;;;;40.13;36.20;;;16.70;1.00;;;;;;5094992;28;20548;-54
2022/08/18 02:14:08;;;;;;;40.60;36.70;;;16.70;40.00;;;;;;5099934;28;20485;-55
2022/08/18 02:16:35;;;;;;;37.50;33.90;;;16.60;88.00;;;;;;5099304;28;20431;-56
2022/08/18 02:19:02;;;;;;;40.10;36.20;;;16.60;99.90;;;;;;5099328;28;20549;-55
2022/08/18 02:21:30;;;;;;;38.43;34.57;;;16.50;99.90;;;;;;5099333;28;20542;-54
2022/08/18 02:23:57;;;;;;;38.20;34.43;;;16.50;99.90;;;;;;5099532;28;20435;-51
2022/08/18 02:26:26;;;;;;;37.93;34.20;;;16.40;1.00;;;;;;5100156;28;20810;-54
2022/08/18 02:28:55;;;;;;;40.90;36.70;;;16.40;99.90;;;;;;5095319;28;20441;-54
2022/08/18 02:31:24;;;;;;;46.40;41.80;;;16.40;99.90;;;;;;5094935;28;20945;-50
2022/08/18 02:33:52;;;;;;;45.97;41.27;;;16.40;1.00;;;;;;5097705;28;20509;-53
2022/08/18 02:36:20;;;;;;;44.43;40.07;;;16.40;1.00;;;;;;5094887;28;20928;-49
2022/08/18 02:38:50;;;;;;;43.30;38.90;;;16.40;90.40;;;;;;5088627;28;20518;-51
2022/08/18 02:41:19;;;;;;;46.50;41.07;;;16.40;1.00;;;;;;5096659;28;20463;-55
2022/08/18 02:43:47;;;;;;;42.50;37.97;;;16.50;1.00;;;;;;5094284;28;20431;-51
2022/08/18 02:46:18;;;;;;;44.37;39.70;;;16.50;59.30;;;;;;5092865;28;20491;-48
2022/08/18 02:48:46;;;;;;;41.40;36.47;;;16.70;36.60;;;;;;5090027;28;20463;-52
2022/08/18 02:51:17;;;;;;;43.67;39.37;;;16.70;1.00;;;;;;5088048;28;20458;-51
2022/08/18 02:53:46;;;;;;;41.27;37.03;;;16.80;99.90;;;;;;5090099;28;20442;-52
2022/08/18 02:56:22;;;;;;;42.83;38.17;;;16.70;1.00;;;;;;5097040;28;20514;-53
2022/08/18 02:58:52;;;;;;;42.40;38.03;;;16.70;1.00;;;;;;5099710;28;20458;-53
2022/08/18 03:01:21;;;;;;;44.30;39.70;;;16.80;99.90;;;;;;5098900;28;20452;-52
2022/08/18 03:03:49;;;;;;;44.47;39.80;;;16.90;43.80;;;;;;5098870;28;20526;-49
2022/08/18 03:06:18;;;;;;;45.33;40.63;;;17.00;1.00;;;;;;5099235;28;20460;-52
2022/08/18 03:08:48;;;;;;;42.63;38.40;;;17.00;1.00;;;;;;5094699;28;20453;-50
2022/08/18 03:11:16;;;;;;;43.07;38.60;;;17.00;99.90;;;;;;5087869;28;20810;-54
2022/08/18 03:13:43;;;;;;;43.43;39.07;;;17.00;1.00;;;;;;5083748;28;20457;-51
2022/08/18 03:16:10;;;;;;;44.60;40.00;;;17.00;1.00;;;;;;5095928;28;20540;-50
2022/08/18 03:18:40;;;;;;;44.07;39.37;;;17.00;1.00;;;;;;5092530;28;20459;-55
2022/08/18 03:21:08;;;;;;;43.33;38.70;;;17.00;1.00;;;;;;5087186;28;20458;-53
2022/08/18 03:23:38;;;;;;;45.37;40.67;;;17.00;99.90;;;;;;5089151;28;20879;-51
2022/08/18 03:26:08;;;;;;;48.23;43.23;;;17.10;1.00;;;;;;5092877;28;20530;-55
2022/08/18 03:28:36;;;;;;;47.60;42.40;;;17.10;1.00;;;;;;5084765;28;20465;-51
2022/08/18 03:31:06;;;;;;;44.67;39.80;;;17.10;99.90;;;;;;5092197;28;20493;-53
2022/08/18 03:33:35;;;;;;;45.80;41.20;;;17.10;99.90;;;;;;5091281;28;20467;-52
2022/08/18 03:36:07;;;;;;;43.77;39.30;;;17.20;99.90;;;;;;5082817;28;20461;-54
2022/08/18 03:38:34;;;;;;;44.83;40.10;;;17.30;99.90;;;;;;5092086;28;20459;-52
2022/08/18 03:41:02;;;;;;;47.90;42.90;;;17.30;32.90;;;;;;5089728;28;20453;-53
2022/08/18 03:43:30;;;;;;;46.90;42.00;;;17.30;25.90;;;;;;5089710;28;20774;-50
2022/08/18 03:46:03;;;;;;;46.30;41.70;;;17.40;1.00;;;;;;5092430;28;20767;-54
2022/08/18 03:48:32;;;;;;;43.53;39.00;;;17.40;1.00;;;;;;5087671;28;20452;-49
2022/08/18 03:51:06;;;;;;;44.77;40.20;;;17.40;99.90;;;;;;5096901;28;20780;-52
2022/08/18 03:53:33;;;;;;;47.00;41.93;;;17.40;1.00;;;;;;5083179;28;20526;-53
2022/08/18 03:56:01;;;;;;;45.70;40.90;;;17.40;48.10;;;;;;5093096;28;20539;-55
2022/08/18 03:58:28;;;;;;;49.17;41.73;;;17.40;99.90;;;;;;5096184;28;20465;-50
2022/08/18 04:01:00;;;;;;;49.93;44.57;;;17.40;99.90;;;;;;5091509;28;20455;-54
2022/08/18 04:03:28;;;;;;;51.27;43.73;;;17.60;99.90;;;;;;5092869;28;20815;-55
2022/08/18 04:05:59;;;;;;;52.03;43.90;;;17.60;99.90;;;;;;5092137;28;20871;-47
2022/08/18 04:08:30;;;;;;;54.03;45.17;;;17.60;1.00;;;;;;5095155;28;20445;-54
2022/08/18 04:11:02;;;;;;;49.93;44.50;;;17.60;99.90;;;;;;5095485;28;20557;-53
2022/08/18 04:13:35;;;;;;;51.67;45.07;;;17.60;1.00;;;;;;5092776;28;20435;-53
2022/08/18 04:16:03;;;;;;;57.30;44.60;;;17.60;99.90;;;;;;5080511;28;20462;-54
2022/08/18 04:18:31;;;;;;;51.73;44.50;;;17.70;99.90;;;;;;5092259;28;20963;-53
2022/08/18 04:21:06;;;;;;;52.77;43.87;;;17.70;99.90;;;;;;5086215;28;20432;-54
2022/08/18 04:23:36;;;;;;;51.27;45.00;;;17.70;99.90;;;;;;5097900;28;20476;-56
2022/08/18 04:26:04;;;;;;;51.17;44.43;;;17.80;99.90;;;;;;5094381;28;20740;-55
2022/08/18 04:28:32;;;;;;;46.70;41.60;;;17.80;99.90;;;;;;5093354;28;20547;-54
2022/08/18 04:30:59;;;;;;;48.50;42.60;;;17.80;99.90;;;;;;5077186;28;20587;-47
2022/08/18 04:33:28;;;;;;;48.00;41.97;;;17.80;99.90;;;;;;5090458;28;20446;-52
2022/08/18 04:35:56;;;;;;;48.40;42.00;;;17.90;99.90;;;;;;5094464;28;20456;-53
2022/08/18 04:38:23;;;;;;;47.00;41.90;;;17.90;99.90;;;;;;5095287;28;20461;-48
2022/08/18 04:40:52;;;;;;;45.83;40.97;;;17.90;1.00;;;;;;5092202;28;20503;-50
2022/08/18 04:43:23;;;;;;;50.77;42.97;;;18.00;99.90;;;;;;5089266;28;20457;-53
2022/08/18 04:45:53;;;;;;;57.80;47.60;;;18.10;1.00;;;;;;5085532;28;20474;-53
2022/08/18 04:48:27;;;;;;;58.20;50.13;;;18.10;17.90;;;;;;5088095;28;20820;-50
2022/08/18 04:50:57;;;;;;;59.70;49.13;;;18.00;99.90;;;;;;5086530;28;20484;-54
2022/08/18 04:56:16;;;;;;;58.80;48.83;;;18.10;1.00;;;;;;5083797;28;20458;-49
2022/08/18 04:58:50;;;;;;;57.60;48.37;;;18.10;99.90;;;;;;5085844;28;20530;-55
2022/08/18 05:01:17;;;;;;;54.20;47.33;;;18.20;99.90;;;;;;5091041;28;20883;-53
2022/08/18 05:03:50;;;;;;;53.37;46.33;;;18.20;99.90;;;;;;5078499;28;20448;-50
2022/08/18 05:06:19;;;;;;;52.67;43.60;;;18.10;99.90;;;;;;5096494;28;20495;-51
2022/08/18 05:08:47;;;;;;;56.70;46.73;;;18.00;1.00;;;;;;5096511;28;20860;-52
2022/08/18 05:11:17;;;;;;;53.70;44.67;;;18.00;45.20;;;;;;5095865;28;20488;-50
2022/08/18 05:13:45;;;;;;;54.73;44.10;;;18.00;99.90;;;;;;5093937;28;20541;-50
2022/08/18 05:16:18;;;;;;;56.27;45.20;;;18.00;99.90;;;;;;5093668;28;20446;-50
2022/08/18 05:18:54;;;;;;;55.97;44.63;;;18.00;99.90;;;;;;5095177;28;20492;-50
2022/08/18 05:21:24;;;;;;;56.83;46.23;;;18.00;99.90;;;;;;5076763;28;20489;-53
2022/08/18 05:23:52;;;;;;;54.20;43.97;;;18.10;99.90;;;;;;5084885;28;20478;-50
2022/08/18 05:26:21;;;;;;;56.83;43.70;;;18.10;99.90;;;;;;5096588;28;20464;-50
2022/08/18 05:28:49;;;;;;;50.37;41.43;;;18.10;99.90;;;;;;5096686;28;20457;-48
2022/08/18 05:31:23;;;;;;;52.53;41.67;;;18.00;99.90;;;;;;5095453;28;20484;-49
2022/08/18 05:33:51;;;;;;;50.40;38.30;;;17.90;99.90;;;;;;5093712;28;20547;-53
2022/08/18 05:36:42;;;;;;;50.80;39.73;;;17.90;99.90;;;;;;5094859;28;20530;-49
2022/08/18 05:39:18;;;;;;;55.33;40.27;;;17.90;99.90;;;;;;5095620;28;20435;-49
2022/08/18 05:41:53;;;;;;;57.40;39.87;;;17.90;99.90;;;;;;5095909;28;20799;-50
2022/08/18 05:44:24;;;;;;;53.27;38.87;;;17.90;99.90;;;;;;5100260;28;20438;-51
2022/08/18 05:46:58;;;;;;;50.33;37.27;;;17.90;99.90;;;;;;5084447;28;20431;-50
2022/08/18 05:49:26;;;;;;;52.93;37.40;;;17.90;99.90;;;;;;5099607;28;20460;-56
2022/08/18 05:51:58;;;;;;;50.00;36.60;;;18.00;99.90;;;;;;5099542;28;20502;-53
2022/08/18 05:57:21;;;;;;;45.80;35.40;;;18.10;99.90;;;;;;5099835;28;20967;-52
2022/08/18 05:59:52;;;;;;;48.90;35.07;;;18.20;99.90;;;;;;5099079;28;20431;-51
2022/08/18 06:02:31;;;;;;;45.67;35.77;;;18.20;99.90;;;;;;5099134;28;20460;-54
2022/08/18 06:05:06;;;;;;;48.60;36.07;;;18.20;99.90;;;;;;5100731;28;20464;-56
2022/08/18 06:07:40;;;;;;;48.70;37.20;;;18.20;99.90;;;;;;5099696;28;20548;-56
2022/08/18 06:10:10;;;;;;;50.70;38.87;;;18.20;99.90;;;;;;5100469;28;20735;-57
2022/08/18 06:12:48;;;;;;;49.20;34.70;;;18.20;99.90;;;;;;5100781;28;20856;-55
2022/08/18 06:15:30;;;;;;;41.87;32.70;;;18.30;99.90;;;;;;5099723;28;20466;-56
2022/08/18 06:18:17;;;;;;;48.70;35.70;;;18.30;99.90;;;;;;5096852;28;20455;-56
2022/08/18 06:21:21;;;;;;;49.43;37.47;;;18.30;99.90;;;;;;5098893;28;20970;-56
2022/08/18 06:24:02;;;;;;;45.90;36.00;;;18.30;99.90;;;;;;5095163;28;20426;-58
2022/08/18 06:26:40;;;;;;;44.77;35.93;;;18.30;99.90;;;;;;5098454;28;20610;-56
2022/08/18 06:29:23;;;;;;;40.97;33.50;;;18.40;99.90;;;;;;5099679;28;20447;-58
2022/08/18 06:32:04;;;;;;;41.43;31.80;;;18.30;99.90;;;;;;5098321;28;20459;-58
2022/08/18 06:34:53;;;;;;;46.97;37.27;;;18.30;99.90;;;;;;5099907;28;20748;-57
2022/08/18 06:37:30;;;;;;;44.97;33.83;;;18.30;99.90;;;;;;5098174;28;20461;-55
2022/08/18 06:40:03;;;;;;;41.27;31.53;;;18.40;99.90;;;;;;5099050;28;20767;-57
2022/08/18 06:42:30;;;;;;;39.77;30.43;;;18.50;99.90;;;;;;5091679;28;20816;-57
2022/08/18 06:45:02;;;;;;;40.10;32.07;;;18.50;99.90;;;;;;5079223;28;20461;-57
2022/08/18 06:47:39;;;;;;;44.73;32.67;;;18.60;99.90;;;;;;5081467;28;20563;-53
2022/08/18 06:50:11;;;;;;;39.50;32.83;;;18.70;99.90;;;;;;5099271;28;20464;-57
2022/08/18 06:52:50;;;;;;;44.07;35.30;;;18.80;99.90;;;;;;5098774;28;20587;-55
2022/08/18 06:55:31;;;;;;;44.53;34.67;;;18.90;99.90;;;;;;5099419;28;20533;-55
2022/08/18 06:58:03;;;;;;;39.37;31.40;;;19.10;99.90;;;;;;5098859;28;20530;-55
2022/08/18 07:00:35;;;;;;;42.50;32.67;;;19.20;1.00;;;;;;5098822;28;20461;-52
2022/08/18 07:03:08;;;;;;;41.87;34.03;;;19.30;99.90;;;;;;5099784;28;20738;-56
2022/08/18 07:05:39;;;;;;;46.53;34.50;;;19.30;99.90;;;;;;5099264;28;20470;-55
2022/08/18 07:08:25;;;;;;;43.80;34.20;;;19.40;1.00;;;;;;5098401;28;20950;-54
2022/08/18 07:10:53;;;;;;;42.97;33.60;;;19.40;99.90;;;;;;5099173;28;20438;-57
2022/08/18 07:13:25;;;;;;;47.13;34.33;;;19.50;1.00;;;;;;5097769;28;20610;-56
2022/08/18 07:15:55;;;;;;;48.70;36.93;;;19.60;99.90;;;;;;5098069;28;20468;-54
2022/08/18 07:18:29;;;;;;;49.80;39.37;;;19.50;88.60;;;;;;5091903;28;20493;-55
2022/08/18 07:20:59;;;;;;;51.70;38.20;;;19.50;1.00;;;;;;5096115;28;20462;-53
2022/08/18 07:23:37;;;;;;;56.67;41.93;;;19.30;1.00;;;;;;5096457;28;20457;-53
2022/08/18 07:26:10;;;;;;;56.87;42.93;;;19.20;34.30;;;;;;5097374;28;20514;-56
2022/08/18 07:28:44;;;;;;;56.47;41.67;;;19.20;99.90;;;;;;5096490;28;20483;-51
2022/08/18 07:31:42;;;;;;;60.30;44.07;;;19.30;99.90;;;;;;5095436;28;20484;-54
2022/08/18 07:34:13;;;;;;;56.63;42.97;;;19.20;99.90;;;;;;5098328;28;20540;-57
2022/08/18 07:36:53;;;;;;;61.53;45.43;;;19.40;1.00;;;;;;5098671;28;20435;-52
2022/08/18 07:39:31;;;;;;;58.73;45.90;;;19.50;1.00;;;;;;5098145;28;20474;-55
2022/08/18 07:42:05;;;;;;;57.10;43.17;;;19.30;99.90;;;;;;5078672;28;20890;-51
2022/08/18 07:44:43;;;;;;;57.43;44.57;;;19.30;99.90;;;;;;5085101;28;20436;-57
2022/08/18 07:47:20;;;;;;;58.80;42.37;;;19.40;99.90;;;;;;5098690;28;20435;-57
2022/08/18 07:49:57;;;;;;;64.17;46.00;;;19.50;99.90;;;;;;5098334;28;20529;-57
2022/08/18 07:52:30;;;;;;;59.00;45.10;;;19.50;58.40;;;;;;5078627;28;20523;-54
2022/08/18 07:55:26;;;;;;;62.07;45.30;;;19.40;1.00;;;;;;5084193;28;20460;-55
2022/08/18 07:58:00;;;;;;;58.60;45.00;;;19.50;1.00;;;;;;5097796;28;20470;-55
2022/08/18 08:00:34;;;;;;;55.47;42.93;;;19.70;1.00;;;;;;5097782;28;20559;-51
2022/08/18 08:03:15;;;;;;;56.20;42.63;;;19.70;1.00;;;;;;5097459;28;20547;-54
2022/08/18 08:05:48;;;;;;;56.63;42.13;;;19.80;99.90;;;;;;5097371;28;20487;-53
2022/08/18 08:08:28;;;;;;;55.63;42.40;;;19.90;99.90;;;;;;5098122;28;20547;-52
2022/08/18 08:11:03;;;;;;;51.50;41.37;;;20.00;99.90;;;;;;5097094;28;20434;-53
2022/08/18 08:13:42;;;;;;;55.33;42.00;;;20.00;99.90;;;;;;5097509;28;20539;-50
2022/08/18 08:16:20;;;;;;;51.97;40.83;;;20.10;99.90;;;;;;5097955;28;20467;-53
2022/08/18 08:19:02;;;;;;;44.60;39.07;;;20.20;72.10;;;;;;5097123;28;20486;-56
2022/08/18 08:21:36;;;;;;;45.07;37.60;;;20.40;1.00;;;;;;5097478;28;20827;-53
2022/08/18 08:24:12;;;;;;;42.30;36.20;;;20.40;1.00;;;;;;5097921;28;20550;-51
2022/08/18 08:26:50;;;;;;;40.10;35.03;;;20.50;1.00;;;;;;5097741;28;20525;-54
2022/08/18 08:29:39;;;;;;;43.07;36.60;;;20.60;1.00;;;;;;5097022;28;20463;-52
2022/08/18 08:32:13;;;;;;;41.67;35.43;;;20.70;1.00;;;;;;5097858;28;20488;-54
2022/08/18 08:34:50;;;;;;;42.60;36.77;;;20.80;1.00;;;;;;5098014;28;20456;-54
2022/08/18 08:37:22;;;;;;;42.13;34.80;;;20.90;1.00;;;;;;5097577;28;20521;-54
2022/08/18 08:39:56;;;;;;;42.77;36.17;;;21.00;1.00;;;;;;5097353;28;20558;-53
2022/08/18 08:42:35;;;;;;;39.50;35.00;;;21.20;1.00;;;;;;5097721;28;20438;-54
2022/08/18 08:45:09;;;;;;;37.97;33.73;;;21.30;1.00;;;;;;5097686;28;20427;-56
2022/08/18 08:47:42;;;;;;;37.37;33.30;;;21.20;1.00;;;;;;5096967;28;20445;-54
2022/08/18 08:50:18;;;;;;;38.30;34.20;;;21.20;1.00;;;;;;5095006;28;20526;-53
2022/08/18 08:52:49;;;;;;;37.70;33.10;;;21.30;1.00;;;;;;5097151;28;20487;-55
2022/08/18 08:55:24;;;;;;;35.90;31.67;;;21.60;1.00;;;;;;5097557;28;20457;-50
2022/08/18 08:57:58;;;;;;;35.57;31.63;;;21.90;1.00;;;;;;5097603;28;20885;-57
2022/08/18 09:00:26;;;;;;;37.63;32.47;;;21.90;1.00;;;;;;5097085;28;20481;-50
2022/08/18 09:03:08;;;;;;;35.20;30.00;;;22.00;1.00;;;;;;5097143;28;21064;-50
2022/08/18 09:05:44;;;;;;;34.23;30.63;;;22.10;1.00;;;;;;5097237;28;20915;-53
2022/08/18 09:08:41;;;;;;;34.17;30.47;;;22.00;1.00;;;;;;5097190;28;20481;-55
2022/08/18 09:11:43;;;;;;;31.90;28.50;;;22.10;1.00;;;;;;5076946;28;20462;-53
2022/08/18 09:14:47;;;;;;;37.93;31.43;;;22.10;1.00;;;;;;5077847;28;20486;-51
2022/08/18 09:17:42;;;;;;;35.33;31.07;;;22.20;1.00;;;;;;5101436;28;20456;-53
2022/08/18 09:20:33;;;;;;;35.27;30.70;;;22.50;1.00;;;;;;5100529;28;20456;-53
2022/08/18 09:23:08;;;;;;;35.67;31.80;;;22.60;1.00;;;;;;5101170;28;20431;-54
2022/08/18 09:25:50;;;;;;;32.63;29.33;;;22.80;99.90;;;;;;5101246;28;20467;-51
2022/08/18 09:28:22;;;;;;;35.80;32.23;;;22.90;99.90;;;;;;5096145;28;20473;-55
2022/08/18 09:31:18;;;;;;;32.47;28.97;;;23.00;99.90;;;;;;5099850;28;20439;-54
2022/08/18 09:34:17;;;;;;;32.50;29.20;;;23.50;99.90;;;;;;5093017;28;20464;-54
2022/08/18 09:37:01;;;;;;;33.27;29.90;;;23.80;99.90;;;;;;5081032;28;20457;-51
2022/08/18 09:42:32;;;;;;;35.63;30.90;;;24.10;99.90;;;;;;5079955;28;20497;-57
2022/08/18 09:45:07;;;;;;;33.37;29.87;;;23.90;99.90;;;;;;5087151;28;20739;-54
2022/08/18 09:48:22;;;;;;;39.10;32.73;;;23.80;99.90;;;;;;5100605;28;20885;-53
2022/08/18 09:51:25;;;;;;;40.43;34.07;;;23.70;99.90;;;;;;5100034;28;20795;-55
2022/08/18 09:54:12;;;;;;;37.20;33.40;;;23.70;99.90;;;;;;5079628;28;20460;-54
2022/08/18 09:57:20;;;;;;;39.43;35.40;;;23.70;99.90;;;;;;5097319;28;20735;-49
2022/08/18 09:59:54;;;;;;;38.57;34.50;;;23.70;99.90;;;;;;5100822;28;20827;-55
2022/08/18 10:03:11;;;;;;;40.27;35.97;;;23.60;99.90;;;;;;5100093;28;20476;-57
2022/08/18 10:05:40;;;;;;;40.13;36.03;;;23.40;99.90;;;;;;5099995;28;20452;-53
2022/08/18 10:09:04;;;;;;;39.77;35.47;;;23.00;99.90;;;;;;5099456;28;20551;-55
2022/08/18 10:11:51;;;;;;;40.53;35.47;;;23.00;99.90;;;;;;5036821;28;20459;-53
2022/08/18 10:14:50;;;;;;;41.00;36.70;;;22.90;99.90;;;;;;5016463;28;20928;-57
2022/08/18 10:17:32;;;;;;;40.17;35.50;;;23.00;99.90;;;;;;5091251;28;20435;-56
2022/08/18 10:20:09;;;;;;;43.93;39.20;;;23.20;99.90;;;;;;5100433;28;20551;-48
2022/08/18 10:22:42;;;;;;;41.53;37.00;;;23.40;99.90;;;;;;5099466;28;20435;-55
2022/08/18 10:25:13;;;;;;;43.03;38.40;;;23.50;99.90;;;;;;5099535;28;20457;-49
2022/08/18 10:27:53;;;;;;;43.10;37.57;;;23.60;99.90;;;;;;5097459;28;20459;-55
2022/08/18 10:31:00;;;;;;;42.10;37.67;;;24.10;99.90;;;;;;5097897;28;20471;-53
2022/08/18 10:34:02;;;;;;;40.73;36.63;;;24.50;99.90;;;;;;5097978;28;20508;-54
2022/08/18 10:36:51;;;;;;;43.70;38.97;;;24.60;99.90;;;;;;5096251;28;20462;-53
2022/08/18 10:39:22;;;;;;;41.80;37.30;;;24.70;99.90;;;;;;5092468;28;20747;-57
2022/08/18 10:42:05;;;;;;;40.60;36.50;;;24.60;99.90;;;;;;5097597;28;20818;-55
2022/08/18 10:44:38;;;;;;;42.20;37.80;;;24.60;99.90;;;;;;5088051;28;20464;-55
2022/08/18 10:47:06;;;;;;;38.80;34.70;;;24.70;99.90;;;;;;5095253;28;20452;-56
2022/08/18 10:49:35;;;;;;;40.37;36.00;;;24.40;99.90;;;;;;5098026;28;20455;-56
2022/08/18 10:52:40;;;;;;;38.93;35.00;;;24.40;99.90;;;;;;5097645;28;20528;-57
2022/08/18 10:55:33;;;;;;;42.03;37.90;;;24.50;99.90;;;;;;5098305;28;20525;-52
2022/08/18 10:58:16;;;;;;;39.37;35.17;;;24.60;99.90;;;;;;5096104;28;20462;-52
2022/08/18 11:01:00;;;;;;;43.10;38.63;;;24.90;99.90;;;;;;5098599;28;20559;-56
2022/08/18 11:03:48;;;;;;;38.63;34.73;;;24.40;99.90;;;;;;5099793;28;20427;-57
2022/08/18 11:06:25;;;;;;;36.87;33.40;;;24.90;99.90;;;;;;5098916;28;20460;-58
2022/08/18 11:08:58;;;;;;;39.20;35.20;;;24.90;99.90;;;;;;5097381;28;20472;-54
2022/08/18 11:11:33;;;;;;;37.53;33.77;;;25.00;99.90;;;;;;5098446;28;20442;-54
2022/08/18 11:14:10;;;;;;;36.63;32.83;;;24.90;99.90;;;;;;5098482;28;20506;-54
2022/08/18 11:16:49;;;;;;;37.63;33.80;;;24.40;99.90;;;;;;5093252;28;20549;-53
2022/08/18 11:19:21;;;;;;;30.60;27.60;;;24.60;99.90;;;;;;5077912;28;20488;-54
2022/08/18 11:21:52;;;;;;;32.50;29.50;;;24.60;99.90;;;;;;5083893;28;20895;-55
2022/08/18 11:24:24;;;;;;;34.77;31.57;;;24.50;99.90;;;;;;5096729;28;20923;-50
2022/08/18 11:26:55;;;;;;;34.87;31.67;;;24.00;99.90;;;;;;5097351;28;20470;-57
2022/08/18 11:29:27;;;;;;;37.77;34.00;;;24.10;99.90;;;;;;5096728;28;20760;-55
2022/08/18 11:31:59;;;;;;;34.03;30.70;;;24.20;99.90;;;;;;5097113;28;20427;-55
2022/08/18 11:34:41;;;;;;;31.80;28.70;;;24.50;99.90;;;;;;5097758;28;20743;-50
2022/08/18 11:37:21;;;;;;;33.10;30.10;;;24.70;99.90;;;;;;5096740;28;20465;-52
2022/08/18 11:39:53;;;;;;;32.23;29.37;;;24.70;99.90;;;;;;5095142;28;20453;-57
2022/08/18 11:42:32;;;;;;;32.37;29.40;;;24.90;99.90;;;;;;5088772;28;20558;-56
2022/08/18 11:45:15;;;;;;;32.03;29.27;;;24.80;99.90;;;;;;5077729;28;20490;-48
2022/08/18 11:48:03;;;;;;;33.43;30.43;;;24.80;99.90;;;;;;5096166;28;20460;-54
2022/08/18 11:50:45;;;;;;;32.50;29.50;;;24.60;99.90;;;;;;5097977;28;20467;-54
2022/08/18 11:53:17;;;;;;;30.90;28.20;;;24.60;99.90;;;;;;5098336;28;20957;-56
2022/08/18 11:55:45;;;;;;;34.47;31.27;;;24.80;99.90;;;;;;5097706;28;20464;-54
2022/08/18 11:58:38;;;;;;;34.80;31.50;;;24.50;99.90;;;;;;5097765;28;20442;-52
2022/08/18 12:01:08;;;;;;;33.90;30.70;;;23.80;99.90;;;;;;5097872;28;20555;-57
2022/08/18 12:03:49;;;;;;;35.30;32.10;;;24.00;99.90;;;;;;5098598;28;20438;-54
2022/08/18 12:06:26;;;;;;;35.83;32.63;;;24.30;99.90;;;;;;5097795;28;20460;-52
2022/08/18 12:09:02;;;;;;;36.80;33.40;;;24.20;99.90;;;;;;5077927;28;20461;-52
2022/08/18 12:11:35;;;;;;;37.93;33.87;;;23.90;99.90;;;;;;5084564;28;20554;-54
2022/08/18 12:14:07;;;;;;;40.77;36.90;;;23.80;99.90;;;;;;5097969;28;20527;-55
2022/08/18 12:16:38;;;;;;;38.97;35.37;;;23.70;99.90;;;;;;5098021;28;20464;-50
2022/08/18 12:19:08;;;;;;;40.80;37.00;;;23.90;99.90;;;;;;5097258;28;20499;-51
2022/08/18 12:21:44;;;;;;;37.87;34.17;;;23.90;99.90;;;;;;5096125;28;20460;-55
2022/08/18 12:24:24;;;;;;;35.83;32.40;;;24.40;99.90;;;;;;5097902;28;20487;-54
2022/08/18 12:26:52;;;;;;;36.73;33.43;;;24.80;99.90;;;;;;5097248;28;20464;-55
2022/08/18 12:29:21;;;;;;;38.30;34.83;;;24.90;99.90;;;;;;5096573;28;20500;-53
2022/08/18 12:31:50;;;;;;;35.67;32.33;;;25.00;99.90;;;;;;5095618;28;20555;-55
2022/08/18 12:34:19;;;;;;;36.07;32.87;;;25.30;99.90;;;;;;5095924;28;20840;-55
2022/08/18 12:36:53;;;;;;;37.57;34.20;;;25.20;99.90;;;;;;5095743;28;20441;-50
2022/08/18 12:39:23;;;;;;;34.23;31.10;;;25.50;99.90;;;;;;5095558;28;20464;-49
2022/08/18 12:41:51;;;;;;;35.63;32.43;;;25.80;99.90;;;;;;5097080;28;20464;-54
2022/08/18 12:44:23;;;;;;;36.40;32.70;;;25.90;99.90;;;;;;5095677;28;20463;-48
2022/08/18 12:46:50;;;;;;;34.40;31.10;;;25.70;99.90;;;;;;5096796;28;20499;-53
2022/08/18 12:49:19;;;;;;;36.30;33.10;;;25.30;99.90;;;;;;5097317;28;20460;-57
2022/08/18 12:51:49;;;;;;;37.37;34.07;;;25.00;99.90;;;;;;5097123;28;20558;-52
2022/08/18 12:54:19;;;;;;;36.07;32.87;;;25.00;99.90;;;;;;5096726;28;20942;-48
2022/08/18 12:56:54;;;;;;;35.40;32.23;;;25.40;99.90;;;;;;5097740;28;20537;-51
2022/08/18 12:59:25;;;;;;;35.00;31.90;;;25.30;99.90;;;;;;5095894;28;20462;-53
2022/08/18 13:01:55;;;;;;;34.93;31.93;;;25.60;99.90;;;;;;5094394;28;20464;-50
2022/08/18 13:04:23;;;;;;;37.67;34.27;;;25.90;99.90;;;;;;5094410;28;20466;-49
2022/08/18 13:06:56;;;;;;;35.83;32.43;;;25.60;99.90;;;;;;5094862;28;20589;-53
2022/08/18 13:09:24;;;;;;;34.97;31.60;;;24.90;99.90;;;;;;5092921;28;20512;-49
2022/08/18 13:11:51;;;;;;;38.23;34.67;;;24.90;99.90;;;;;;5092191;28;20551;-54
2022/08/18 13:14:25;;;;;;;37.07;33.57;;;24.90;99.90;;;;;;5094912;28;20932;-52
2022/08/18 13:16:52;;;;;;;35.00;31.70;;;24.80;99.90;;;;;;5093029;28;20430;-49
2022/08/18 13:19:22;;;;;;;37.50;33.97;;;24.40;99.90;;;;;;5095539;28;20851;-54
2022/08/18 13:21:54;;;;;;;35.53;32.13;;;24.60;99.90;;;;;;5095413;28;20551;-56